sensor_id;sensor_type;location;lat;lon;timestamp;pressure;altitude;pressure_sealevel;temperature;humidity
47710;BME280;33473;51.640;5.892;2023-07-20T00:10:31;101200;;;22.4;55.0
47710;BME280;33473;51.640;5.892;2023-07-20T00:23:51;101300;;;22.5;56.0
47710;BME280;33473;51.640;5.892;2023-07-20T00:37:11;101300;;;22.4;56.0
47710;BME280;33473;51.640;5.892;2023-07-20T00:50:32;101200;;;22.4;57.0
47710;BME280;33473;51.640;5.892;2023-07-20T01:03:51;101300;;;22.4;57.0
47710;BME280;33473;51.640;5.892;2023-07-20T01:17:13;101300;;;22.4;57.0
47710;BME280;33473;51.640;5.892;2023-07-20T01:30:34;101300;;;22.4;57.0
47710;BME280;33473;51.640;5.892;2023-07-20T01:43:54;101300;;;22.3;57.0
47710;BME280;33473;51.640;5.892;2023-07-20T01:57:13;101300;;;22.2;57.0
47710;BME280;33473;51.640;5.892;2023-07-20T02:10:35;101300;;;22.1;57.0
47710;BME280;33473;51.640;5.892;2023-07-20T02:23:56;101300;;;22.1;58.0
47710;BME280;33473;51.640;5.892;2023-07-20T02:37:15;101300;;;22.1;59.0
47710;BME280;33473;51.640;5.892;2023-07-20T02:50:37;101300;;;22.1;58.0
47710;BME280;33473;51.640;5.892;2023-07-20T03:03:56;101300;;;21.9;57.0
47710;BME280;33473;51.640;5.892;2023-07-20T03:17:16;101300;;;21.8;57.0
47710;BME280;33473;51.640;5.892;2023-07-20T03:30:37;101300;;;21.7;58.0
47710;BME280;33473;51.640;5.892;2023-07-20T03:43:57;101300;;;21.6;57.0
47710;BME280;33473;51.640;5.892;2023-07-20T03:57:18;101300;;;21.4;57.0
47710;BME280;33473;51.640;5.892;2023-07-20T04:10:38;101300;;;21.2;57.0
47710;BME280;33473;51.640;5.892;2023-07-20T04:23:59;101300;;;21.0;57.0
47710;BME280;33473;51.640;5.892;2023-07-20T04:37:19;101400;;;21.0;57.0
47710;BME280;33473;51.640;5.892;2023-07-20T04:50:39;101400;;;20.9;58.0
47710;BME280;33473;51.640;5.892;2023-07-20T05:03:58;101400;;;20.9;58.0
47710;BME280;33473;51.640;5.892;2023-07-20T05:17:18;101400;;;21.0;59.0
47710;BME280;33473;51.640;5.892;2023-07-20T05:30:39;101400;;;21.1;59.0
47710;BME280;33473;51.640;5.892;2023-07-20T05:44:00;101400;;;21.4;59.0
47710;BME280;33473;51.640;5.892;2023-07-20T05:57:20;101400;;;21.7;59.0
47710;BME280;33473;51.640;5.892;2023-07-20T06:10:41;101400;;;21.8;58.0
47710;BME280;33473;51.640;5.892;2023-07-20T06:24:03;101400;;;21.8;58.0
47710;BME280;33473;51.640;5.892;2023-07-20T06:37:24;101400;;;21.9;58.0
47710;BME280;33473;51.640;5.892;2023-07-20T06:50:44;101400;;;22.0;58.0
47710;BME280;33473;51.640;5.892;2023-07-20T07:04:05;101400;;;22.4;58.0
47710;BME280;33473;51.640;5.892;2023-07-20T07:17:26;101400;;;23.0;57.0
47710;BME280;33473;51.640;5.892;2023-07-20T07:30:46;101400;;;23.6;53.0
47710;BME280;33473;51.640;5.892;2023-07-20T07:44:06;101400;;;24.4;52.0
47710;BME280;33473;51.640;5.892;2023-07-20T07:57:25;101400;;;25.5;45.0
47710;BME280;33473;51.640;5.892;2023-07-20T08:10:45;101400;;;25.8;45.0
47710;BME280;33473;51.640;5.892;2023-07-20T08:24:06;101400;;;25.2;41.0
47710;BME280;33473;51.640;5.892;2023-07-20T08:37:26;101400;;;25.4;44.0
47710;BME280;33473;51.640;5.892;2023-07-20T08:50:47;101400;;;25.5;43.0
47710;BME280;33473;51.640;5.892;2023-07-20T09:04:08;101400;;;25.9;41.0
47710;BME280;33473;51.640;5.892;2023-07-20T09:17:29;101400;;;26.1;40.0
47710;BME280;33473;51.640;5.892;2023-07-20T09:30:49;101400;;;26.3;37.0
47710;BME280;33473;51.640;5.892;2023-07-20T09:44:09;101400;;;26.9;39.0
47710;BME280;33473;51.640;5.892;2023-07-20T09:57:28;101400;;;26.6;36.0
47710;BME280;33473;51.640;5.892;2023-07-20T10:24:11;101400;;;26.1;38.0
47710;BME280;33473;51.640;5.892;2023-07-20T10:37:30;101400;;;26.2;40.0
47710;BME280;33473;51.640;5.892;2023-07-20T10:50:51;101400;;;26.8;37.0
47710;BME280;33473;51.640;5.892;2023-07-20T11:04:13;101400;;;27.7;35.0
47710;BME280;33473;51.640;5.892;2023-07-20T11:17:34;101400;;;27.7;33.0
47710;BME280;33473;51.640;5.892;2023-07-20T11:30:55;101400;;;28.1;34.0
47710;BME280;33473;51.640;5.892;2023-07-20T11:44:15;101400;;;28.3;33.0
47710;BME280;33473;51.640;5.892;2023-07-20T11:57:36;101300;;;27.8;33.0
47710;BME280;33473;51.640;5.892;2023-07-20T12:10:57;101300;;;28.0;35.0
47710;BME280;33473;51.640;5.892;2023-07-20T12:24:18;101300;;;28.5;34.0
47710;BME280;33473;51.640;5.892;2023-07-20T12:37:40;101300;;;28.7;34.0
47710;BME280;33473;51.640;5.892;2023-07-20T12:51:01;101300;;;28.1;33.0
47710;BME280;33473;51.640;5.892;2023-07-20T13:04:22;101300;;;28.0;34.0
47710;BME280;33473;51.640;5.892;2023-07-20T13:17:43;101300;;;28.4;34.0
47710;BME280;33473;51.640;5.892;2023-07-20T13:31:04;101300;;;28.5;30.0
47710;BME280;33473;51.640;5.892;2023-07-20T13:44:26;101300;;;28.1;33.0
47710;BME280;33473;51.640;5.892;2023-07-20T13:57:47;101300;;;27.9;33.0
47710;BME280;33473;51.640;5.892;2023-07-20T14:11:06;101300;;;27.9;36.0
47710;BME280;33473;51.640;5.892;2023-07-20T14:24:28;101300;;;28.2;34.0
47710;BME280;33473;51.640;5.892;2023-07-20T14:37:49;101200;;;29.1;33.0
47710;BME280;33473;51.640;5.892;2023-07-20T14:51:10;101200;;;29.6;33.0
47710;BME280;33473;51.640;5.892;2023-07-20T15:04:30;101200;;;29.5;29.0
47710;BME280;33473;51.640;5.892;2023-07-20T15:17:49;101200;;;29.4;30.0
47710;BME280;33473;51.640;5.892;2023-07-20T15:31:11;101200;;;29.8;30.0
47710;BME280;33473;51.640;5.892;2023-07-20T15:44:32;101200;;;29.7;27.0
47710;BME280;33473;51.640;5.892;2023-07-20T15:57:51;101200;;;29.2;31.0
47710;BME280;33473;51.640;5.892;2023-07-20T16:11:11;101200;;;28.8;29.0
47710;BME280;33473;51.640;5.892;2023-07-20T16:24:32;101200;;;28.6;30.0
47710;BME280;33473;51.640;5.892;2023-07-20T16:37:52;101200;;;28.3;32.0
47710;BME280;33473;51.640;5.892;2023-07-20T16:51:12;101200;;;27.7;33.0
47710;BME280;33473;51.640;5.892;2023-07-20T17:04:33;101200;;;27.1;33.0
47710;BME280;33473;51.640;5.892;2023-07-20T17:17:54;101200;;;26.8;36.0
47710;BME280;33473;51.640;5.892;2023-07-20T17:31:15;101200;;;26.4;36.0
47710;BME280;33473;51.640;5.892;2023-07-20T17:44:35;101200;;;26.0;36.0
47710;BME280;33473;51.640;5.892;2023-07-20T17:57:54;101200;;;25.6;36.0
47710;BME280;33473;51.640;5.892;2023-07-20T18:11:14;101200;;;25.0;39.0
47710;BME280;33473;51.640;5.892;2023-07-20T18:24:35;101200;;;24.8;40.0
47710;BME280;33473;51.640;5.892;2023-07-20T18:37:57;101200;;;24.4;41.0
47710;BME280;33473;51.640;5.892;2023-07-20T18:51:16;101200;;;24.2;44.0
47710;BME280;33473;51.640;5.892;2023-07-20T19:04:37;101200;;;24.0;45.0
47710;BME280;33473;51.640;5.892;2023-07-20T19:17:57;101200;;;23.4;47.0
47710;BME280;33473;51.640;5.892;2023-07-20T19:31:18;101200;;;23.0;50.0
47710;BME280;33473;51.640;5.892;2023-07-20T19:44:39;101200;;;22.7;52.0
47710;BME280;33473;51.640;5.892;2023-07-20T19:57:59;101200;;;22.4;53.0
47710;BME280;33473;51.640;5.892;2023-07-20T20:11:19;101200;;;22.2;54.0
47710;BME280;33473;51.640;5.892;2023-07-20T20:24:40;101200;;;21.9;54.0
47710;BME280;33473;51.640;5.892;2023-07-20T20:38:00;101200;;;22.0;56.0
47710;BME280;33473;51.640;5.892;2023-07-20T20:51:21;101200;;;21.9;55.0
47710;BME280;33473;51.640;5.892;2023-07-20T21:04:42;101200;;;21.7;55.0
47710;BME280;33473;51.640;5.892;2023-07-20T21:18:02;101200;;;21.4;55.0
47710;BME280;33473;51.640;5.892;2023-07-20T21:31:23;101200;;;21.2;55.0
47710;BME280;33473;51.640;5.892;2023-07-20T21:44:44;101200;;;21.1;55.0
47710;BME280;33473;51.640;5.892;2023-07-20T21:58:04;101200;;;20.8;55.0
47710;BME280;33473;51.640;5.892;2023-07-20T22:11:25;101200;;;20.6;55.0
47710;BME280;33473;51.640;5.892;2023-07-20T22:24:45;101100;;;20.5;56.0
47710;BME280;33473;51.640;5.892;2023-07-20T22:38:05;101100;;;20.4;56.0
47710;BME280;33473;51.640;5.892;2023-07-20T22:51:26;101100;;;20.3;56.0
47710;BME280;33473;51.640;5.892;2023-07-20T23:04:47;101100;;;20.2;56.0
47710;BME280;33473;51.640;5.892;2023-07-20T23:18:08;101100;;;20.2;56.0
47710;BME280;33473;51.640;5.892;2023-07-20T23:31:28;101100;;;19.9;55.0
47710;BME280;33473;51.640;5.892;2023-07-20T23:44:48;101100;;;19.8;56.0
47710;BME280;33473;51.640;5.892;2023-07-20T23:58:09;101100;;;19.6;55.0
